sensor_id;sensor_type;location;lat;lon;timestamp;P1;durP1;ratioP1;P2;durP2;ratioP2
20283;SDS011;10301;50.832;4.080;2023-04-24T00:00:03;24.87;;;13.07;;
20283;SDS011;10301;50.832;4.080;2023-04-24T00:02:31;26.93;;;14.77;;
20283;SDS011;10301;50.832;4.080;2023-04-24T00:04:57;27.77;;;15.47;;
20283;SDS011;10301;50.832;4.080;2023-04-24T00:07:27;28.53;;;14.60;;
20283;SDS011;10301;50.832;4.080;2023-04-24T00:09:54;28.63;;;15.40;;
20283;SDS011;10301;50.832;4.080;2023-04-24T00:12:19;27.50;;;14.70;;
20283;SDS011;10301;50.832;4.080;2023-04-24T00:14:45;29.57;;;15.10;;
20283;SDS011;10301;50.832;4.080;2023-04-24T00:17:11;28.73;;;14.80;;
20283;SDS011;10301;50.832;4.080;2023-04-24T00:19:37;28.93;;;15.77;;
20283;SDS011;10301;50.832;4.080;2023-04-24T00:22:02;25.87;;;15.03;;
20283;SDS011;10301;50.832;4.080;2023-04-24T00:24:28;25.20;;;14.87;;
20283;SDS011;10301;50.832;4.080;2023-04-24T00:26:54;26.33;;;15.40;;
20283;SDS011;10301;50.832;4.080;2023-04-24T00:29:19;31.07;;;15.37;;
20283;SDS011;10301;50.832;4.080;2023-04-24T00:31:45;26.50;;;14.43;;
20283;SDS011;10301;50.832;4.080;2023-04-24T00:34:11;28.37;;;16.50;;
20283;SDS011;10301;50.832;4.080;2023-04-24T00:36:37;26.23;;;15.00;;
20283;SDS011;10301;50.832;4.080;2023-04-24T00:39:03;28.60;;;14.63;;
20283;SDS011;10301;50.832;4.080;2023-04-24T00:41:28;31.17;;;14.40;;
20283;SDS011;10301;50.832;4.080;2023-04-24T00:43:55;30.13;;;14.67;;
20283;SDS011;10301;50.832;4.080;2023-04-24T00:46:20;24.57;;;13.83;;
20283;SDS011;10301;50.832;4.080;2023-04-24T00:48:47;25.73;;;15.03;;
20283;SDS011;10301;50.832;4.080;2023-04-24T00:51:12;36.83;;;16.27;;
20283;SDS011;10301;50.832;4.080;2023-04-24T00:53:38;33.40;;;14.77;;
20283;SDS011;10301;50.832;4.080;2023-04-24T00:56:04;24.13;;;14.20;;
20283;SDS011;10301;50.832;4.080;2023-04-24T00:58:30;24.17;;;14.00;;
20283;SDS011;10301;50.832;4.080;2023-04-24T01:00:56;31.63;;;15.33;;
20283;SDS011;10301;50.832;4.080;2023-04-24T01:03:24;29.20;;;16.07;;
20283;SDS011;10301;50.832;4.080;2023-04-24T01:05:54;26.57;;;15.23;;
20283;SDS011;10301;50.832;4.080;2023-04-24T01:08:20;26.03;;;15.50;;
20283;SDS011;10301;50.832;4.080;2023-04-24T01:10:49;26.23;;;14.67;;
20283;SDS011;10301;50.832;4.080;2023-04-24T01:13:16;27.30;;;14.93;;
20283;SDS011;10301;50.832;4.080;2023-04-24T01:15:44;30.90;;;15.90;;
20283;SDS011;10301;50.832;4.080;2023-04-24T01:18:10;25.67;;;14.93;;
20283;SDS011;10301;50.832;4.080;2023-04-24T01:20:36;32.60;;;15.63;;
20283;SDS011;10301;50.832;4.080;2023-04-24T01:23:05;23.93;;;12.93;;
20283;SDS011;10301;50.832;4.080;2023-04-24T01:25:31;21.67;;;13.67;;
20283;SDS011;10301;50.832;4.080;2023-04-24T01:27:57;20.50;;;13.37;;
20283;SDS011;10301;50.832;4.080;2023-04-24T01:30:23;24.97;;;12.77;;
20283;SDS011;10301;50.832;4.080;2023-04-24T01:32:49;23.50;;;12.53;;
20283;SDS011;10301;50.832;4.080;2023-04-24T01:35:16;21.20;;;12.70;;
20283;SDS011;10301;50.832;4.080;2023-04-24T01:37:42;22.13;;;12.07;;
20283;SDS011;10301;50.832;4.080;2023-04-24T01:40:08;23.30;;;12.33;;
20283;SDS011;10301;50.832;4.080;2023-04-24T01:42:34;19.50;;;12.27;;
20283;SDS011;10301;50.832;4.080;2023-04-24T01:45:00;25.03;;;12.07;;
20283;SDS011;10301;50.832;4.080;2023-04-24T01:47:28;20.03;;;11.07;;
20283;SDS011;10301;50.832;4.080;2023-04-24T01:49:55;16.80;;;10.07;;
20283;SDS011;10301;50.832;4.080;2023-04-24T01:52:21;19.50;;;10.80;;
20283;SDS011;10301;50.832;4.080;2023-04-24T01:54:47;19.83;;;10.53;;
20283;SDS011;10301;50.832;4.080;2023-04-24T01:57:13;19.87;;;11.30;;
20283;SDS011;10301;50.832;4.080;2023-04-24T01:59:39;21.10;;;11.63;;
20283;SDS011;10301;50.832;4.080;2023-04-24T02:02:05;18.27;;;10.43;;
20283;SDS011;10301;50.832;4.080;2023-04-24T02:04:31;18.07;;;11.17;;
20283;SDS011;10301;50.832;4.080;2023-04-24T02:06:58;22.07;;;11.47;;
20283;SDS011;10301;50.832;4.080;2023-04-24T02:09:23;20.53;;;11.23;;
20283;SDS011;10301;50.832;4.080;2023-04-24T02:11:50;17.17;;;10.93;;
20283;SDS011;10301;50.832;4.080;2023-04-24T02:14:15;22.07;;;11.50;;
20283;SDS011;10301;50.832;4.080;2023-04-24T02:16:41;20.27;;;12.13;;
20283;SDS011;10301;50.832;4.080;2023-04-24T02:19:07;23.93;;;11.77;;
20283;SDS011;10301;50.832;4.080;2023-04-24T02:21:33;22.10;;;11.83;;
20283;SDS011;10301;50.832;4.080;2023-04-24T02:23:59;22.43;;;11.83;;
20283;SDS011;10301;50.832;4.080;2023-04-24T02:26:25;21.27;;;11.80;;
20283;SDS011;10301;50.832;4.080;2023-04-24T02:28:51;20.40;;;11.87;;
20283;SDS011;10301;50.832;4.080;2023-04-24T02:31:16;23.73;;;11.53;;
20283;SDS011;10301;50.832;4.080;2023-04-24T02:33:42;19.77;;;11.40;;
20283;SDS011;10301;50.832;4.080;2023-04-24T02:36:08;21.63;;;11.63;;
20283;SDS011;10301;50.832;4.080;2023-04-24T02:38:33;20.60;;;11.47;;
20283;SDS011;10301;50.832;4.080;2023-04-24T02:40:59;24.07;;;12.07;;
20283;SDS011;10301;50.832;4.080;2023-04-24T02:43:26;22.00;;;11.43;;
20283;SDS011;10301;50.832;4.080;2023-04-24T02:45:52;23.50;;;11.83;;
20283;SDS011;10301;50.832;4.080;2023-04-24T02:48:18;23.70;;;11.70;;
20283;SDS011;10301;50.832;4.080;2023-04-24T02:50:45;21.37;;;12.07;;
20283;SDS011;10301;50.832;4.080;2023-04-24T02:53:11;21.07;;;11.80;;
20283;SDS011;10301;50.832;4.080;2023-04-24T02:55:37;21.43;;;11.60;;
20283;SDS011;10301;50.832;4.080;2023-04-24T02:58:02;23.23;;;11.27;;
20283;SDS011;10301;50.832;4.080;2023-04-24T03:00:28;23.00;;;12.10;;
20283;SDS011;10301;50.832;4.080;2023-04-24T03:02:54;18.80;;;11.07;;
20283;SDS011;10301;50.832;4.080;2023-04-24T03:05:20;22.27;;;11.97;;
20283;SDS011;10301;50.832;4.080;2023-04-24T03:07:46;20.37;;;12.13;;
20283;SDS011;10301;50.832;4.080;2023-04-24T03:10:12;19.83;;;10.90;;
20283;SDS011;10301;50.832;4.080;2023-04-24T03:12:37;21.97;;;11.90;;
20283;SDS011;10301;50.832;4.080;2023-04-24T03:15:03;21.23;;;12.00;;
20283;SDS011;10301;50.832;4.080;2023-04-24T03:17:29;22.23;;;11.03;;
20283;SDS011;10301;50.832;4.080;2023-04-24T03:19:55;19.73;;;10.20;;
20283;SDS011;10301;50.832;4.080;2023-04-24T03:22:21;18.60;;;10.50;;
20283;SDS011;10301;50.832;4.080;2023-04-24T03:24:46;17.80;;;10.20;;
20283;SDS011;10301;50.832;4.080;2023-04-24T03:27:12;17.37;;;10.03;;
20283;SDS011;10301;50.832;4.080;2023-04-24T03:29:37;16.80;;;9.93;;
20283;SDS011;10301;50.832;4.080;2023-04-24T03:32:03;14.10;;;8.87;;
20283;SDS011;10301;50.832;4.080;2023-04-24T03:34:29;14.20;;;8.70;;
20283;SDS011;10301;50.832;4.080;2023-04-24T03:36:54;12.93;;;8.17;;
20283;SDS011;10301;50.832;4.080;2023-04-24T03:39:20;12.90;;;8.10;;
20283;SDS011;10301;50.832;4.080;2023-04-24T03:41:46;12.60;;;7.23;;
20283;SDS011;10301;50.832;4.080;2023-04-24T03:44:11;13.10;;;7.50;;
20283;SDS011;10301;50.832;4.080;2023-04-24T03:46:37;13.03;;;8.37;;
20283;SDS011;10301;50.832;4.080;2023-04-24T03:49:02;18.27;;;8.80;;
20283;SDS011;10301;50.832;4.080;2023-04-24T03:51:28;16.23;;;8.93;;
20283;SDS011;10301;50.832;4.080;2023-04-24T03:53:55;13.70;;;8.70;;
20283;SDS011;10301;50.832;4.080;2023-04-24T03:56:20;15.93;;;8.73;;
20283;SDS011;10301;50.832;4.080;2023-04-24T03:58:46;12.87;;;7.90;;
20283;SDS011;10301;50.832;4.080;2023-04-24T04:01:12;12.90;;;7.87;;
20283;SDS011;10301;50.832;4.080;2023-04-24T04:03:38;14.87;;;8.30;;
20283;SDS011;10301;50.832;4.080;2023-04-24T04:06:03;14.20;;;8.53;;
20283;SDS011;10301;50.832;4.080;2023-04-24T04:08:29;14.30;;;7.43;;
20283;SDS011;10301;50.832;4.080;2023-04-24T04:10:55;12.63;;;8.30;;
20283;SDS011;10301;50.832;4.080;2023-04-24T04:13:21;16.03;;;8.37;;
20283;SDS011;10301;50.832;4.080;2023-04-24T04:15:46;17.70;;;9.77;;
20283;SDS011;10301;50.832;4.080;2023-04-24T04:18:12;14.17;;;7.93;;
20283;SDS011;10301;50.832;4.080;2023-04-24T04:20:38;18.30;;;9.00;;
20283;SDS011;10301;50.832;4.080;2023-04-24T04:23:03;18.13;;;9.30;;
20283;SDS011;10301;50.832;4.080;2023-04-24T04:25:29;17.87;;;10.00;;
20283;SDS011;10301;50.832;4.080;2023-04-24T04:27:54;22.73;;;11.03;;
20283;SDS011;10301;50.832;4.080;2023-04-24T04:30:20;17.27;;;11.27;;
20283;SDS011;10301;50.832;4.080;2023-04-24T04:32:46;22.57;;;11.23;;
20283;SDS011;10301;50.832;4.080;2023-04-24T04:35:12;20.20;;;11.80;;
20283;SDS011;10301;50.832;4.080;2023-04-24T04:37:38;20.77;;;11.30;;
20283;SDS011;10301;50.832;4.080;2023-04-24T04:40:05;25.03;;;12.37;;
20283;SDS011;10301;50.832;4.080;2023-04-24T04:42:32;23.67;;;13.10;;
20283;SDS011;10301;50.832;4.080;2023-04-24T04:45:01;21.63;;;13.40;;
20283;SDS011;10301;50.832;4.080;2023-04-24T04:47:27;28.40;;;14.27;;
20283;SDS011;10301;50.832;4.080;2023-04-24T04:49:53;23.13;;;13.53;;
20283;SDS011;10301;50.832;4.080;2023-04-24T04:52:19;22.00;;;14.13;;
20283;SDS011;10301;50.832;4.080;2023-04-24T04:54:49;28.20;;;14.47;;
20283;SDS011;10301;50.832;4.080;2023-04-24T04:57:15;28.33;;;14.77;;
20283;SDS011;10301;50.832;4.080;2023-04-24T04:59:41;29.43;;;15.17;;
20283;SDS011;10301;50.832;4.080;2023-04-24T05:02:07;24.00;;;14.50;;
20283;SDS011;10301;50.832;4.080;2023-04-24T05:04:32;28.10;;;14.33;;
20283;SDS011;10301;50.832;4.080;2023-04-24T05:06:58;26.13;;;14.77;;
20283;SDS011;10301;50.832;4.080;2023-04-24T05:09:24;29.13;;;16.80;;
20283;SDS011;10301;50.832;4.080;2023-04-24T05:11:52;24.33;;;14.67;;
20283;SDS011;10301;50.832;4.080;2023-04-24T05:14:18;30.50;;;14.53;;
20283;SDS011;10301;50.832;4.080;2023-04-24T05:16:44;28.50;;;15.83;;
20283;SDS011;10301;50.832;4.080;2023-04-24T05:19:10;23.50;;;13.83;;
20283;SDS011;10301;50.832;4.080;2023-04-24T05:21:36;26.63;;;14.97;;
20283;SDS011;10301;50.832;4.080;2023-04-24T05:24:04;24.87;;;13.63;;
20283;SDS011;10301;50.832;4.080;2023-04-24T05:26:30;24.53;;;13.03;;
20283;SDS011;10301;50.832;4.080;2023-04-24T05:28:56;25.93;;;13.20;;
20283;SDS011;10301;50.832;4.080;2023-04-24T05:31:21;23.63;;;13.37;;
20283;SDS011;10301;50.832;4.080;2023-04-24T05:33:47;27.00;;;14.23;;
20283;SDS011;10301;50.832;4.080;2023-04-24T05:36:13;26.33;;;13.87;;
20283;SDS011;10301;50.832;4.080;2023-04-24T05:38:38;21.90;;;13.17;;
20283;SDS011;10301;50.832;4.080;2023-04-24T05:41:04;22.20;;;12.70;;
20283;SDS011;10301;50.832;4.080;2023-04-24T05:43:30;26.07;;;13.43;;
20283;SDS011;10301;50.832;4.080;2023-04-24T05:45:55;23.43;;;13.50;;
20283;SDS011;10301;50.832;4.080;2023-04-24T05:48:21;24.70;;;13.07;;
20283;SDS011;10301;50.832;4.080;2023-04-24T05:50:47;23.43;;;12.93;;
20283;SDS011;10301;50.832;4.080;2023-04-24T05:53:13;25.33;;;13.50;;
20283;SDS011;10301;50.832;4.080;2023-04-24T05:55:39;24.87;;;13.20;;
20283;SDS011;10301;50.832;4.080;2023-04-24T05:58:05;23.93;;;13.00;;
20283;SDS011;10301;50.832;4.080;2023-04-24T06:00:31;24.37;;;13.57;;
20283;SDS011;10301;50.832;4.080;2023-04-24T06:02:58;22.50;;;13.17;;
20283;SDS011;10301;50.832;4.080;2023-04-24T06:05:25;23.10;;;13.00;;
20283;SDS011;10301;50.832;4.080;2023-04-24T06:07:51;27.67;;;14.13;;
20283;SDS011;10301;50.832;4.080;2023-04-24T06:10:17;31.87;;;15.37;;
20283;SDS011;10301;50.832;4.080;2023-04-24T06:12:42;26.83;;;14.60;;
20283;SDS011;10301;50.832;4.080;2023-04-24T06:15:08;25.57;;;14.47;;
20283;SDS011;10301;50.832;4.080;2023-04-24T06:17:35;32.93;;;15.33;;
20283;SDS011;10301;50.832;4.080;2023-04-24T06:20:00;26.57;;;15.70;;
20283;SDS011;10301;50.832;4.080;2023-04-24T06:22:28;29.33;;;15.53;;
20283;SDS011;10301;50.832;4.080;2023-04-24T06:24:54;32.20;;;16.13;;
20283;SDS011;10301;50.832;4.080;2023-04-24T06:27:20;35.60;;;16.37;;
20283;SDS011;10301;50.832;4.080;2023-04-24T06:29:46;29.33;;;16.07;;
20283;SDS011;10301;50.832;4.080;2023-04-24T06:32:17;32.00;;;15.60;;
20283;SDS011;10301;50.832;4.080;2023-04-24T06:34:43;31.93;;;17.17;;
20283;SDS011;10301;50.832;4.080;2023-04-24T06:37:08;29.50;;;16.50;;
20283;SDS011;10301;50.832;4.080;2023-04-24T06:39:34;31.43;;;17.33;;
20283;SDS011;10301;50.832;4.080;2023-04-24T06:42:00;29.03;;;16.67;;
20283;SDS011;10301;50.832;4.080;2023-04-24T06:44:26;30.53;;;16.40;;
20283;SDS011;10301;50.832;4.080;2023-04-24T06:46:51;30.43;;;16.87;;
20283;SDS011;10301;50.832;4.080;2023-04-24T06:49:17;29.60;;;15.87;;
20283;SDS011;10301;50.832;4.080;2023-04-24T06:51:43;36.67;;;15.43;;
20283;SDS011;10301;50.832;4.080;2023-04-24T06:54:08;34.00;;;16.03;;
20283;SDS011;10301;50.832;4.080;2023-04-24T06:56:34;26.77;;;15.03;;
20283;SDS011;10301;50.832;4.080;2023-04-24T06:59:00;29.13;;;15.63;;
20283;SDS011;10301;50.832;4.080;2023-04-24T07:01:25;26.17;;;14.63;;
20283;SDS011;10301;50.832;4.080;2023-04-24T07:03:51;32.00;;;16.27;;
20283;SDS011;10301;50.832;4.080;2023-04-24T07:06:17;32.97;;;14.77;;
20283;SDS011;10301;50.832;4.080;2023-04-24T07:08:46;29.10;;;15.17;;
20283;SDS011;10301;50.832;4.080;2023-04-24T07:11:12;23.63;;;14.47;;
20283;SDS011;10301;50.832;4.080;2023-04-24T07:13:38;29.87;;;14.60;;
20283;SDS011;10301;50.832;4.080;2023-04-24T07:16:06;29.23;;;13.97;;
20283;SDS011;10301;50.832;4.080;2023-04-24T07:18:33;30.83;;;15.37;;
20283;SDS011;10301;50.832;4.080;2023-04-24T07:20:59;30.13;;;14.60;;
20283;SDS011;10301;50.832;4.080;2023-04-24T07:23:24;27.57;;;13.77;;
20283;SDS011;10301;50.832;4.080;2023-04-24T07:25:50;27.33;;;14.43;;
20283;SDS011;10301;50.832;4.080;2023-04-24T07:28:16;28.80;;;15.27;;
20283;SDS011;10301;50.832;4.080;2023-04-24T07:30:42;23.17;;;12.63;;
20283;SDS011;10301;50.832;4.080;2023-04-24T07:33:08;26.10;;;13.00;;
20283;SDS011;10301;50.832;4.080;2023-04-24T07:35:37;24.37;;;13.33;;
20283;SDS011;10301;50.832;4.080;2023-04-24T07:38:03;22.87;;;11.80;;
20283;SDS011;10301;50.832;4.080;2023-04-24T07:40:29;25.97;;;11.30;;
20283;SDS011;10301;50.832;4.080;2023-04-24T07:42:55;22.73;;;11.10;;
20283;SDS011;10301;50.832;4.080;2023-04-24T07:45:21;20.73;;;10.67;;
20283;SDS011;10301;50.832;4.080;2023-04-24T07:47:48;20.83;;;9.67;;
20283;SDS011;10301;50.832;4.080;2023-04-24T07:50:15;24.67;;;9.93;;
20283;SDS011;10301;50.832;4.080;2023-04-24T07:52:41;21.90;;;10.50;;
20283;SDS011;10301;50.832;4.080;2023-04-24T07:55:06;19.00;;;9.97;;
20283;SDS011;10301;50.832;4.080;2023-04-24T07:57:33;21.07;;;9.80;;
20283;SDS011;10301;50.832;4.080;2023-04-24T07:59:59;17.38;;;8.60;;
20283;SDS011;10301;50.832;4.080;2023-04-24T08:02:24;20.37;;;9.37;;
20283;SDS011;10301;50.832;4.080;2023-04-24T08:04:54;17.00;;;8.70;;
20283;SDS011;10301;50.832;4.080;2023-04-24T08:07:20;17.80;;;8.53;;
20283;SDS011;10301;50.832;4.080;2023-04-24T08:09:46;18.33;;;7.95;;
20283;SDS011;10301;50.832;4.080;2023-04-24T08:12:12;19.57;;;8.70;;
20283;SDS011;10301;50.832;4.080;2023-04-24T08:14:37;18.70;;;8.07;;
20283;SDS011;10301;50.832;4.080;2023-04-24T08:17:03;18.52;;;8.82;;
20283;SDS011;10301;50.832;4.080;2023-04-24T08:19:29;17.88;;;7.32;;
20283;SDS011;10301;50.832;4.080;2023-04-24T08:21:54;13.97;;;7.33;;
20283;SDS011;10301;50.832;4.080;2023-04-24T08:24:20;17.13;;;7.67;;
20283;SDS011;10301;50.832;4.080;2023-04-24T08:26:46;15.52;;;6.15;;
20283;SDS011;10301;50.832;4.080;2023-04-24T08:29:15;12.70;;;6.27;;
20283;SDS011;10301;50.832;4.080;2023-04-24T08:31:41;13.17;;;5.57;;
20283;SDS011;10301;50.832;4.080;2023-04-24T08:34:06;10.83;;;5.53;;
20283;SDS011;10301;50.832;4.080;2023-04-24T08:36:32;12.10;;;5.80;;
20283;SDS011;10301;50.832;4.080;2023-04-24T08:38:58;12.33;;;6.47;;
20283;SDS011;10301;50.832;4.080;2023-04-24T08:41:24;13.73;;;6.25;;
20283;SDS011;10301;50.832;4.080;2023-04-24T08:43:51;13.68;;;5.53;;
20283;SDS011;10301;50.832;4.080;2023-04-24T08:46:18;13.73;;;5.50;;
20283;SDS011;10301;50.832;4.080;2023-04-24T08:48:44;13.25;;;5.25;;
20283;SDS011;10301;50.832;4.080;2023-04-24T08:51:10;11.52;;;5.10;;
20283;SDS011;10301;50.832;4.080;2023-04-24T08:53:37;12.27;;;4.93;;
20283;SDS011;10301;50.832;4.080;2023-04-24T08:56:03;13.50;;;5.38;;
20283;SDS011;10301;50.832;4.080;2023-04-24T08:58:29;17.55;;;5.28;;
20283;SDS011;10301;50.832;4.080;2023-04-24T09:00:57;14.30;;;4.60;;
20283;SDS011;10301;50.832;4.080;2023-04-24T09:03:23;14.18;;;5.13;;
20283;SDS011;10301;50.832;4.080;2023-04-24T09:05:49;14.13;;;5.13;;
20283;SDS011;10301;50.832;4.080;2023-04-24T09:08:18;12.52;;;5.47;;
20283;SDS011;10301;50.832;4.080;2023-04-24T09:10:45;12.77;;;5.78;;
20283;SDS011;10301;50.832;4.080;2023-04-24T09:13:11;12.93;;;5.70;;
20283;SDS011;10301;50.832;4.080;2023-04-24T09:15:40;11.25;;;5.95;;
20283;SDS011;10301;50.832;4.080;2023-04-24T09:18:06;17.08;;;6.03;;
20283;SDS011;10301;50.832;4.080;2023-04-24T09:20:32;15.85;;;5.90;;
20283;SDS011;10301;50.832;4.080;2023-04-24T09:22:58;12.63;;;5.22;;
20283;SDS011;10301;50.832;4.080;2023-04-24T09:25:34;13.90;;;5.18;;
20283;SDS011;10301;50.832;4.080;2023-04-24T09:28:03;9.23;;;4.30;;
20283;SDS011;10301;50.832;4.080;2023-04-24T09:30:30;13.93;;;5.47;;
20283;SDS011;10301;50.832;4.080;2023-04-24T09:35:40;12.65;;;5.60;;
20283;SDS011;10301;50.832;4.080;2023-04-24T09:38:07;14.05;;;4.82;;
20283;SDS011;10301;50.832;4.080;2023-04-24T09:40:34;10.15;;;4.80;;
20283;SDS011;10301;50.832;4.080;2023-04-24T09:43:00;11.25;;;4.90;;
20283;SDS011;10301;50.832;4.080;2023-04-24T09:45:28;15.57;;;5.13;;
20283;SDS011;10301;50.832;4.080;2023-04-24T09:48:00;13.48;;;4.97;;
20283;SDS011;10301;50.832;4.080;2023-04-24T09:50:26;11.52;;;4.35;;
20283;SDS011;10301;50.832;4.080;2023-04-24T09:52:58;12.60;;;5.43;;
20283;SDS011;10301;50.832;4.080;2023-04-24T09:55:27;11.60;;;4.82;;
20283;SDS011;10301;50.832;4.080;2023-04-24T09:58:00;12.00;;;5.38;;
20283;SDS011;10301;50.832;4.080;2023-04-24T10:00:30;11.63;;;5.18;;
20283;SDS011;10301;50.832;4.080;2023-04-24T10:03:01;12.68;;;5.35;;
20283;SDS011;10301;50.832;4.080;2023-04-24T10:05:31;13.40;;;7.28;;
20283;SDS011;10301;50.832;4.080;2023-04-24T10:08:05;13.27;;;5.57;;
20283;SDS011;10301;50.832;4.080;2023-04-24T10:10:33;12.50;;;5.57;;
20283;SDS011;10301;50.832;4.080;2023-04-24T10:13:03;15.60;;;6.30;;
20283;SDS011;10301;50.832;4.080;2023-04-24T10:15:29;9.15;;;5.68;;
20283;SDS011;10301;50.832;4.080;2023-04-24T10:17:57;13.90;;;4.60;;
20283;SDS011;10301;50.832;4.080;2023-04-24T10:20:24;12.00;;;5.25;;
20283;SDS011;10301;50.832;4.080;2023-04-24T10:22:52;15.07;;;5.88;;
20283;SDS011;10301;50.832;4.080;2023-04-24T10:25:23;13.48;;;5.72;;
20283;SDS011;10301;50.832;4.080;2023-04-24T10:27:51;14.05;;;5.63;;
20283;SDS011;10301;50.832;4.080;2023-04-24T10:30:18;13.43;;;6.07;;
20283;SDS011;10301;50.832;4.080;2023-04-24T10:32:44;10.82;;;6.13;;
20283;SDS011;10301;50.832;4.080;2023-04-24T10:35:14;9.60;;;6.57;;
20283;SDS011;10301;50.832;4.080;2023-04-24T10:37:42;13.00;;;5.90;;
20283;SDS011;10301;50.832;4.080;2023-04-24T10:40:24;15.73;;;7.00;;
20283;SDS011;10301;50.832;4.080;2023-04-24T10:43:04;9.23;;;5.82;;
20283;SDS011;10301;50.832;4.080;2023-04-24T10:45:33;11.98;;;6.28;;
20283;SDS011;10301;50.832;4.080;2023-04-24T10:48:00;13.20;;;6.05;;
20283;SDS011;10301;50.832;4.080;2023-04-24T10:50:42;10.98;;;5.88;;
20283;SDS011;10301;50.832;4.080;2023-04-24T10:53:12;11.07;;;5.90;;
20283;SDS011;10301;50.832;4.080;2023-04-24T10:55:52;9.68;;;5.43;;
20283;SDS011;10301;50.832;4.080;2023-04-24T10:58:40;10.25;;;6.43;;
20283;SDS011;10301;50.832;4.080;2023-04-24T11:01:10;10.63;;;6.00;;
20283;SDS011;10301;50.832;4.080;2023-04-24T11:04:00;12.68;;;6.90;;
20283;SDS011;10301;50.832;4.080;2023-04-24T11:06:31;12.70;;;6.75;;
20283;SDS011;10301;50.832;4.080;2023-04-24T11:09:01;13.48;;;6.85;;
20283;SDS011;10301;50.832;4.080;2023-04-24T11:11:32;12.98;;;6.63;;
20283;SDS011;10301;50.832;4.080;2023-04-24T11:16:44;14.40;;;7.50;;
20283;SDS011;10301;50.832;4.080;2023-04-24T11:27:16;13.10;;;7.57;;
20283;SDS011;10301;50.832;4.080;2023-04-24T11:37:36;11.15;;;7.25;;
20283;SDS011;10301;50.832;4.080;2023-04-24T11:40:05;12.27;;;6.35;;
20283;SDS011;10301;50.832;4.080;2023-04-24T11:42:36;16.13;;;7.07;;
20283;SDS011;10301;50.832;4.080;2023-04-24T11:45:06;15.98;;;7.47;;
20283;SDS011;10301;50.832;4.080;2023-04-24T11:47:34;14.32;;;7.97;;
20283;SDS011;10301;50.832;4.080;2023-04-24T11:50:00;13.70;;;7.72;;
20283;SDS011;10301;50.832;4.080;2023-04-24T11:52:27;12.73;;;8.13;;
20283;SDS011;10301;50.832;4.080;2023-04-24T11:54:54;17.33;;;8.10;;
20283;SDS011;10301;50.832;4.080;2023-04-24T11:57:20;15.52;;;8.18;;
20283;SDS011;10301;50.832;4.080;2023-04-24T11:59:51;12.93;;;7.80;;
20283;SDS011;10301;50.832;4.080;2023-04-24T12:02:23;15.93;;;8.27;;
20283;SDS011;10301;50.832;4.080;2023-04-24T12:04:50;16.15;;;7.97;;
20283;SDS011;10301;50.832;4.080;2023-04-24T12:07:16;15.60;;;8.60;;
20283;SDS011;10301;50.832;4.080;2023-04-24T12:12:25;17.00;;;8.30;;
20283;SDS011;10301;50.832;4.080;2023-04-24T12:17:24;11.77;;;8.00;;
20283;SDS011;10301;50.832;4.080;2023-04-24T12:19:52;12.73;;;8.18;;
20283;SDS011;10301;50.832;4.080;2023-04-24T12:22:21;12.38;;;7.40;;
20283;SDS011;10301;50.832;4.080;2023-04-24T12:24:57;13.52;;;8.27;;
20283;SDS011;10301;50.832;4.080;2023-04-24T12:27:33;13.75;;;7.90;;
20283;SDS011;10301;50.832;4.080;2023-04-24T12:30:04;12.60;;;7.55;;
20283;SDS011;10301;50.832;4.080;2023-04-24T12:32:30;12.32;;;6.82;;
20283;SDS011;10301;50.832;4.080;2023-04-24T12:34:56;8.27;;;5.80;;
20283;SDS011;10301;50.832;4.080;2023-04-24T12:37:26;9.35;;;6.45;;
20283;SDS011;10301;50.832;4.080;2023-04-24T12:40:01;10.82;;;6.55;;
20283;SDS011;10301;50.832;4.080;2023-04-24T12:42:27;11.23;;;5.90;;
20283;SDS011;10301;50.832;4.080;2023-04-24T12:44:59;9.80;;;6.70;;
20283;SDS011;10301;50.832;4.080;2023-04-24T12:47:30;10.65;;;5.82;;
20283;SDS011;10301;50.832;4.080;2023-04-24T12:49:56;11.52;;;5.63;;
20283;SDS011;10301;50.832;4.080;2023-04-24T12:52:22;9.88;;;4.93;;
20283;SDS011;10301;50.832;4.080;2023-04-24T12:54:49;11.70;;;4.93;;
20283;SDS011;10301;50.832;4.080;2023-04-24T12:57:16;9.05;;;4.88;;
20283;SDS011;10301;50.832;4.080;2023-04-24T12:59:42;8.52;;;4.53;;
20283;SDS011;10301;50.832;4.080;2023-04-24T13:02:08;10.73;;;5.10;;
20283;SDS011;10301;50.832;4.080;2023-04-24T13:04:35;8.20;;;4.72;;
20283;SDS011;10301;50.832;4.080;2023-04-24T13:07:01;7.63;;;5.03;;
20283;SDS011;10301;50.832;4.080;2023-04-24T13:09:27;10.70;;;4.88;;
20283;SDS011;10301;50.832;4.080;2023-04-24T13:11:52;9.98;;;4.78;;
20283;SDS011;10301;50.832;4.080;2023-04-24T13:14:18;7.65;;;4.00;;
20283;SDS011;10301;50.832;4.080;2023-04-24T13:16:44;8.48;;;4.40;;
20283;SDS011;10301;50.832;4.080;2023-04-24T13:19:10;6.78;;;4.20;;
20283;SDS011;10301;50.832;4.080;2023-04-24T13:21:35;10.10;;;4.20;;
20283;SDS011;10301;50.832;4.080;2023-04-24T13:24:01;10.43;;;4.00;;
20283;SDS011;10301;50.832;4.080;2023-04-24T13:26:28;9.13;;;3.78;;
20283;SDS011;10301;50.832;4.080;2023-04-24T13:28:54;8.90;;;3.58;;
20283;SDS011;10301;50.832;4.080;2023-04-24T13:31:20;8.45;;;3.75;;
20283;SDS011;10301;50.832;4.080;2023-04-24T13:33:45;9.15;;;3.97;;
20283;SDS011;10301;50.832;4.080;2023-04-24T13:36:11;7.22;;;3.72;;
20283;SDS011;10301;50.832;4.080;2023-04-24T13:38:37;7.70;;;3.67;;
20283;SDS011;10301;50.832;4.080;2023-04-24T13:41:03;8.75;;;3.97;;
20283;SDS011;10301;50.832;4.080;2023-04-24T13:43:28;7.53;;;3.45;;
20283;SDS011;10301;50.832;4.080;2023-04-24T13:45:54;11.38;;;3.60;;
20283;SDS011;10301;50.832;4.080;2023-04-24T13:48:20;10.48;;;3.63;;
20283;SDS011;10301;50.832;4.080;2023-04-24T13:50:46;6.22;;;2.75;;
20283;SDS011;10301;50.832;4.080;2023-04-24T13:53:13;7.53;;;2.90;;
20283;SDS011;10301;50.832;4.080;2023-04-24T13:55:39;10.85;;;2.60;;
20283;SDS011;10301;50.832;4.080;2023-04-24T13:58:05;7.13;;;2.97;;
20283;SDS011;10301;50.832;4.080;2023-04-24T14:00:31;9.70;;;3.17;;
20283;SDS011;10301;50.832;4.080;2023-04-24T14:02:57;8.45;;;2.33;;
20283;SDS011;10301;50.832;4.080;2023-04-24T14:05:22;10.32;;;2.80;;
20283;SDS011;10301;50.832;4.080;2023-04-24T14:07:48;9.07;;;2.70;;
20283;SDS011;10301;50.832;4.080;2023-04-24T14:10:14;7.97;;;2.60;;
20283;SDS011;10301;50.832;4.080;2023-04-24T14:12:40;6.00;;;2.13;;
20283;SDS011;10301;50.832;4.080;2023-04-24T14:15:05;5.32;;;2.20;;
20283;SDS011;10301;50.832;4.080;2023-04-24T14:17:32;7.00;;;2.35;;
20283;SDS011;10301;50.832;4.080;2023-04-24T14:19:57;5.95;;;2.33;;
20283;SDS011;10301;50.832;4.080;2023-04-24T14:22:25;5.25;;;2.35;;
20283;SDS011;10301;50.832;4.080;2023-04-24T14:24:51;6.90;;;2.30;;
20283;SDS011;10301;50.832;4.080;2023-04-24T14:27:16;5.60;;;2.20;;
20283;SDS011;10301;50.832;4.080;2023-04-24T14:29:42;6.78;;;2.67;;
20283;SDS011;10301;50.832;4.080;2023-04-24T14:32:10;9.15;;;2.95;;
20283;SDS011;10301;50.832;4.080;2023-04-24T14:34:35;9.07;;;2.60;;
20283;SDS011;10301;50.832;4.080;2023-04-24T14:37:01;5.72;;;2.90;;
20283;SDS011;10301;50.832;4.080;2023-04-24T14:39:27;5.82;;;2.63;;
20283;SDS011;10301;50.832;4.080;2023-04-24T14:41:53;5.68;;;3.50;;
20283;SDS011;10301;50.832;4.080;2023-04-24T14:44:20;5.72;;;2.72;;
20283;SDS011;10301;50.832;4.080;2023-04-24T14:46:45;6.47;;;2.38;;
20283;SDS011;10301;50.832;4.080;2023-04-24T14:49:11;5.70;;;2.95;;
20283;SDS011;10301;50.832;4.080;2023-04-24T14:51:37;8.45;;;3.10;;
20283;SDS011;10301;50.832;4.080;2023-04-24T14:54:03;7.68;;;3.55;;